KGKY

Arlington Municipal Airport

Arlington, Texas, USA
METAR KGKY 231606Z 28007KT 3SM BR OVC003 05/05 A3022 RMK AO2 RAE1554 P0000 T00500050 $
Observed Flight Rules
Feb-23 @ 16:06 UTC (27 minutes ago) Instrument Flight Rules
Wind Visibility Clouds Conditions
280° at 7 knots 3 miles
  • Overcast at 300' AGL
  • Mist
Temperatures Readings Precipitation
Current 5°C / 41°F
Dewpoint 5°C / 41°F
Humidity 100%
Altimeter 30.22" Hg
Pressure 1023 hPa
Elevation 192
Current Rain 0.005
METAR KGKY 231606Z 28007KT 3SM BR OVC003 05/05 A3022 RMK AO2 RAE1554 P0000 T00500050 $
Observed Flight Rules
Feb-23 @ 16:06 UTC
(27 minutes ago)
LIFR
Wind Visibility
280° at 7 knots 3 miles
Clouds
  • Overcast at 300' AGL
Conditions
  • Mist
Temperature Dewpoint
5°C / 41°F 5°C / 41°F
Humidity Altimeter Pressure
100% 30.22" Hg 1023 hPa
Current Rain
0.005